createdAt,value
2016-06-28T00:00:07.670Z,25.01
2016-06-28T00:01:08.866Z,24.92
2016-06-28T00:02:08.882Z,24.97
2016-06-28T00:03:08.888Z,24.96
2016-06-28T00:04:08.897Z,25
2016-06-28T00:05:08.307Z,24.93
2016-06-28T00:06:07.731Z,25
2016-06-28T00:07:08.938Z,24.9
2016-06-28T00:08:08.937Z,24.96
2016-06-28T00:09:08.972Z,24.92
2016-06-28T00:10:08.361Z,24.9
2016-06-28T00:11:08.387Z,24.94
2016-06-28T00:12:08.383Z,24.87
2016-06-28T00:13:08.422Z,24.92
2016-06-28T00:14:09.004Z,24.87
2016-06-28T00:15:08.414Z,24.96
2016-06-28T00:16:08.428Z,24.82
2016-06-28T00:17:09.032Z,24.94
2016-06-28T00:18:07.843Z,24.87
2016-06-28T00:19:08.441Z,24.93
2016-06-28T00:20:09.050Z,24.94
2016-06-28T00:21:09.067Z,25
2016-06-28T00:22:08.105Z,24.9
2016-06-28T00:23:08.499Z,24.93
2016-06-28T00:24:09.103Z,24.96
2016-06-28T00:25:07.910Z,24.9
2016-06-28T00:26:08.564Z,24.89
2016-06-28T00:27:08.537Z,24.82
2016-06-28T00:28:08.547Z,24.92
2016-06-28T00:29:09.143Z,24.9
2016-06-28T00:30:07.950Z,24.87
2016-06-28T00:31:09.160Z,24.82
2016-06-28T00:32:08.582Z,24.89
2016-06-28T00:33:09.206Z,24.93
2016-06-28T00:34:08.615Z,24.87
2016-06-28T00:35:09.199Z,24.92
2016-06-28T00:36:08.625Z,24.92
2016-06-28T00:37:08.030Z,24.9
2016-06-28T00:38:09.246Z,24.92
2016-06-28T00:39:08.063Z,24.86
2016-06-28T00:40:08.085Z,24.89
2016-06-28T00:41:08.674Z,24.89
2016-06-28T00:42:09.279Z,24.92
2016-06-28T00:43:08.704Z,24.94
2016-06-28T00:44:08.693Z,24.9
2016-06-28T00:45:08.714Z,24.97
2016-06-28T00:46:08.716Z,24.8
2016-06-28T00:47:08.731Z,24.77
2016-06-28T00:48:08.762Z,24.89
2016-06-28T00:49:08.763Z,24.86
2016-06-28T00:50:08.754Z,24.78
2016-06-28T00:51:08.204Z,24.89
2016-06-28T00:52:09.369Z,24.82
2016-06-28T00:53:08.180Z,24.83
2016-06-28T00:54:08.789Z,24.85
2016-06-28T00:55:08.807Z,24.77
2016-06-28T00:56:09.407Z,24.85
2016-06-28T00:57:08.824Z,24.83
2016-06-28T00:58:08.226Z,24.82
2016-06-28T00:59:09.443Z,24.86
2016-06-28T01:00:08.867Z,24.86
2016-06-28T01:01:09.476Z,24.7
2016-06-28T01:02:08.293Z,24.75
2016-06-28T01:03:08.888Z,24.83
2016-06-28T01:04:08.911Z,24.85
2016-06-28T01:05:08.299Z,24.85
2016-06-28T01:06:09.514Z,24.89
2016-06-28T01:07:08.366Z,24.83
2016-06-28T01:08:08.935Z,24.8
2016-06-28T01:09:08.939Z,24.78
2016-06-28T01:10:08.982Z,24.8
2016-06-28T01:11:09.556Z,24.8
2016-06-28T01:12:08.957Z,24.77
2016-06-28T01:13:09.567Z,24.83
2016-06-28T01:14:09.632Z,24.89
2016-06-28T01:15:09.004Z,24.82
2016-06-28T01:16:09.610Z,24.8
2016-06-28T01:17:09.023Z,24.8
2016-06-28T01:18:09.036Z,24.89
2016-06-28T01:19:09.047Z,24.83
2016-06-28T01:20:09.058Z,24.8
2016-06-28T01:21:09.056Z,24.82
2016-06-28T01:22:09.095Z,24.86
2016-06-28T01:23:09.675Z,24.87
2016-06-28T01:24:09.089Z,24.75
2016-06-28T01:25:09.698Z,24.82
2016-06-28T01:26:09.166Z,24.89
2016-06-28T01:27:09.115Z,24.82
2016-06-28T01:28:08.531Z,24.83
2016-06-28T01:29:09.737Z,24.85
2016-06-28T01:30:09.165Z,24.82
2016-06-28T01:31:08.547Z,24.83
2016-06-28T01:32:08.563Z,24.77
2016-06-28T01:33:09.177Z,24.78
2016-06-28T01:34:09.190Z,24.8
2016-06-28T01:35:09.221Z,24.85
2016-06-28T01:36:09.799Z,24.82
2016-06-28T01:37:09.837Z,24.86
2016-06-28T01:38:09.229Z,24.85
2016-06-28T01:39:09.229Z,24.86
2016-06-28T01:40:08.645Z,24.77
2016-06-28T01:41:09.254Z,24.77
2016-06-28T01:42:09.863Z,24.83
2016-06-28T01:43:09.874Z,24.86
2016-06-28T01:44:09.281Z,24.82
2016-06-28T01:45:09.903Z,24.77
2016-06-28T01:46:09.308Z,24.82
2016-06-28T01:47:09.917Z,24.82
2016-06-28T01:48:09.331Z,24.89
2016-06-28T01:49:09.334Z,24.77
2016-06-28T01:50:09.340Z,24.86
2016-06-28T01:51:08.750Z,24.8
2016-06-28T01:52:09.967Z,24.75
2016-06-28T01:53:09.364Z,24.75
2016-06-28T01:54:09.990Z,24.78
2016-06-28T01:55:09.386Z,24.75
2016-06-28T01:56:09.994Z,24.78
2016-06-28T01:57:10.017Z,24.8
2016-06-28T01:58:10.021Z,24.74
2016-06-28T01:59:10.031Z,24.71
2016-06-28T02:00:09.453Z,24.75
2016-06-28T02:01:09.466Z,24.75
2016-06-28T02:02:09.446Z,24.75
2016-06-28T02:03:10.101Z,24.77
2016-06-28T02:04:09.469Z,24.8
2016-06-28T02:05:08.898Z,24.74
2016-06-28T02:06:09.511Z,24.77
2016-06-28T02:07:10.119Z,24.77
2016-06-28T02:08:08.923Z,24.74
2016-06-28T02:09:08.949Z,24.8
2016-06-28T02:10:10.166Z,24.67
2016-06-28T02:11:10.146Z,24.78
2016-06-28T02:12:09.553Z,24.78
2016-06-28T02:13:08.980Z,24.77
2016-06-28T02:14:10.200Z,24.78
2016-06-28T02:15:09.581Z,24.71
2016-06-28T02:16:09.595Z,24.78
2016-06-28T02:17:09.006Z,24.8
2016-06-28T02:18:09.623Z,24.75
2016-06-28T02:19:10.218Z,24.74
2016-06-28T02:20:10.226Z,24.78
2016-06-28T02:21:10.250Z,24.78
2016-06-28T02:22:10.259Z,24.74
2016-06-28T02:23:10.269Z,24.74
2016-06-28T02:24:10.280Z,24.74
2016-06-28T02:25:09.701Z,24.77
2016-06-28T02:26:09.090Z,24.77
2016-06-28T02:27:10.313Z,24.71
2016-06-28T02:28:09.110Z,24.77
2016-06-28T02:29:09.719Z,24.71
2016-06-28T02:30:09.139Z,24.77
2016-06-28T02:31:09.750Z,24.7
2016-06-28T02:32:10.362Z,24.74
2016-06-28T02:33:09.759Z,24.74
2016-06-28T02:34:10.373Z,24.77
2016-06-28T02:35:09.797Z,24.71
2016-06-28T02:36:09.185Z,24.71
2016-06-28T02:37:10.401Z,24.69
2016-06-28T02:38:09.819Z,24.77
2016-06-28T02:39:10.420Z,24.7
2016-06-28T02:40:09.849Z,24.69
2016-06-28T02:41:09.263Z,24.74
2016-06-28T02:42:09.249Z,24.7
2016-06-28T02:43:10.442Z,24.7
2016-06-28T02:44:10.506Z,24.64
2016-06-28T02:45:09.278Z,24.64
2016-06-28T02:46:09.311Z,24.74
2016-06-28T02:47:09.895Z,24.71
2016-06-28T02:48:10.521Z,24.77
2016-06-28T02:49:09.919Z,24.69
2016-06-28T02:50:10.546Z,24.7
2016-06-28T02:51:09.927Z,24.74
2016-06-28T02:52:09.332Z,24.69
2016-06-28T02:53:09.954Z,24.69
2016-06-28T02:54:09.963Z,24.74
2016-06-28T02:55:10.568Z,24.71
2016-06-28T02:56:09.376Z,24.67
2016-06-28T02:57:10.007Z,24.67
2016-06-28T02:58:10.010Z,24.66
2016-06-28T02:59:09.414Z,24.74
2016-06-28T03:00:10.020Z,24.63
2016-06-28T03:01:09.427Z,24.7
2016-06-28T03:02:10.674Z,24.69
2016-06-28T03:03:10.068Z,24.71
2016-06-28T03:04:10.054Z,24.71
2016-06-28T03:05:10.072Z,24.69
2016-06-28T03:06:09.494Z,24.67
2016-06-28T03:07:09.508Z,24.71
2016-06-28T03:08:10.101Z,24.64
2016-06-28T03:09:10.718Z,24.67
2016-06-28T03:10:10.115Z,24.69
2016-06-28T03:11:10.126Z,24.69
2016-06-28T03:12:10.179Z,24.71
2016-06-28T03:13:10.151Z,24.74
2016-06-28T03:14:10.159Z,24.77
2016-06-28T03:15:10.166Z,24.69
2016-06-28T03:16:10.179Z,24.64
2016-06-28T03:17:09.579Z,24.64
2016-06-28T03:18:10.787Z,24.64
2016-06-28T03:19:10.218Z,24.7
2016-06-28T03:20:10.227Z,24.71
2016-06-28T03:21:10.213Z,24.66
2016-06-28T03:22:10.229Z,24.69
2016-06-28T03:23:10.843Z,24.64
2016-06-28T03:24:10.858Z,24.61
2016-06-28T03:25:10.271Z,24.63
2016-06-28T03:26:09.669Z,24.7
2016-06-28T03:27:09.686Z,24.66
2016-06-28T03:28:10.914Z,24.63
2016-06-28T03:29:09.715Z,24.63
2016-06-28T03:30:09.724Z,24.61
2016-06-28T03:31:09.724Z,24.58
2016-06-28T03:32:10.323Z,24.64
2016-06-28T03:33:10.374Z,24.58
2016-06-28T03:34:10.353Z,24.58
2016-06-28T03:35:10.359Z,24.66
2016-06-28T03:36:09.769Z,24.64
2016-06-28T03:37:10.392Z,24.64
2016-06-28T03:38:10.390Z,24.64
2016-06-28T03:39:09.806Z,24.75
2016-06-28T03:40:09.850Z,24.66
2016-06-28T03:41:11.013Z,24.69
2016-06-28T03:42:10.423Z,24.7
2016-06-28T03:43:10.447Z,24.7
2016-06-28T03:44:11.041Z,24.64
2016-06-28T03:45:10.475Z,24.69
2016-06-28T03:46:10.465Z,24.71
2016-06-28T03:47:11.078Z,24.71
2016-06-28T03:48:10.497Z,24.69
2016-06-28T03:49:11.105Z,24.77
2016-06-28T03:50:09.925Z,24.61
2016-06-28T03:51:11.115Z,24.7
2016-06-28T03:52:09.938Z,24.69
2016-06-28T03:53:10.530Z,24.71
2016-06-28T03:54:09.953Z,24.56
2016-06-28T03:55:10.563Z,24.7
2016-06-28T03:56:10.562Z,24.75
2016-06-28T03:57:09.977Z,24.66
2016-06-28T03:58:10.594Z,24.56
2016-06-28T03:59:11.214Z,24.56
2016-06-28T04:00:10.044Z,24.56
2016-06-28T04:01:10.636Z,24.63
2016-06-28T04:02:10.613Z,24.59
2016-06-28T04:03:10.030Z,24.66
2016-06-28T04:04:11.234Z,24.56
2016-06-28T04:05:10.652Z,24.55
2016-06-28T04:06:10.075Z,24.59
2016-06-28T04:07:10.070Z,24.61
2016-06-28T04:08:10.689Z,24.58
2016-06-28T04:09:10.691Z,24.58
2016-06-28T04:10:10.707Z,24.55
2016-06-28T04:11:10.121Z,24.58
2016-06-28T04:12:10.711Z,24.7
2016-06-28T04:13:10.731Z,24.74
2016-06-28T04:14:11.341Z,24.63
2016-06-28T04:15:10.750Z,24.71
2016-06-28T04:16:10.154Z,24.67
2016-06-28T04:17:10.772Z,24.58
2016-06-28T04:18:10.785Z,24.55
2016-06-28T04:19:10.791Z,24.58
2016-06-28T04:20:10.794Z,24.55
2016-06-28T04:21:10.821Z,24.61
2016-06-28T04:22:10.230Z,24.64
2016-06-28T04:23:11.427Z,24.59
2016-06-28T04:24:10.831Z,24.58
2016-06-28T04:25:10.248Z,24.52
2016-06-28T04:26:11.458Z,24.55
2016-06-28T04:27:10.859Z,24.55
2016-06-28T04:28:10.273Z,24.55
2016-06-28T04:29:10.880Z,24.61
2016-06-28T04:30:10.945Z,24.58
2016-06-28T04:31:10.901Z,24.56
2016-06-28T04:32:11.536Z,24.55
2016-06-28T04:33:10.927Z,24.54
2016-06-28T04:34:11.543Z,24.58
2016-06-28T04:35:11.569Z,24.59
2016-06-28T04:36:10.964Z,24.56
2016-06-28T04:37:10.966Z,24.58
2016-06-28T04:38:10.987Z,24.59
2016-06-28T04:39:11.579Z,24.63
2016-06-28T04:40:10.984Z,24.58
2016-06-28T04:41:11.012Z,24.59
2016-06-28T04:42:11.022Z,24.55
2016-06-28T04:43:11.615Z,24.64
2016-06-28T04:44:11.642Z,24.56
2016-06-28T04:45:11.055Z,24.59
2016-06-28T04:46:11.038Z,24.56
2016-06-28T04:47:11.053Z,24.56
2016-06-28T04:48:11.666Z,24.59
2016-06-28T04:49:10.479Z,24.59
2016-06-28T04:50:11.091Z,24.66
2016-06-28T04:51:11.106Z,24.59
2016-06-28T04:52:10.509Z,24.67
2016-06-28T04:53:11.114Z,24.7
2016-06-28T04:54:11.797Z,24.71
2016-06-28T04:55:10.539Z,24.58
2016-06-28T04:56:11.791Z,24.61
2016-06-28T04:57:11.165Z,24.59
2016-06-28T04:58:11.775Z,24.58
2016-06-28T04:59:11.180Z,24.55
2016-06-28T05:00:11.173Z,24.67
2016-06-28T05:01:11.215Z,24.58
2016-06-28T05:02:10.604Z,24.58
2016-06-28T05:03:11.220Z,24.56
2016-06-28T05:04:10.658Z,24.58
2016-06-28T05:05:11.837Z,24.71
2016-06-28T05:06:10.665Z,24.59
2016-06-28T05:07:11.855Z,24.66
2016-06-28T05:08:11.258Z,24.75
2016-06-28T05:09:10.670Z,24.71
2016-06-28T05:10:11.282Z,24.56
2016-06-28T05:11:11.889Z,24.59
2016-06-28T05:12:11.935Z,24.58
2016-06-28T05:13:10.711Z,24.56
2016-06-28T05:14:11.305Z,24.66
2016-06-28T05:15:11.313Z,24.61
2016-06-28T05:16:11.332Z,24.58
2016-06-28T05:17:11.358Z,24.66
2016-06-28T05:18:11.353Z,24.56
2016-06-28T05:19:10.765Z,24.74
2016-06-28T05:20:11.979Z,24.71
2016-06-28T05:21:11.385Z,24.67
2016-06-28T05:22:10.804Z,24.7
2016-06-28T05:23:11.403Z,24.75
2016-06-28T05:24:10.814Z,24.71
2016-06-28T05:25:11.418Z,24.59
2016-06-28T05:26:12.028Z,24.67
2016-06-28T05:27:12.047Z,24.61
2016-06-28T05:28:11.462Z,24.66
2016-06-28T05:29:12.072Z,24.69
2016-06-28T05:30:12.061Z,24.69
2016-06-28T05:32:10.879Z,24.71
2016-06-28T05:33:11.518Z,24.58
2016-06-28T05:34:12.125Z,24.61
2016-06-28T05:35:11.527Z,24.58
2016-06-28T05:36:11.524Z,24.59
2016-06-28T05:37:11.558Z,24.63
2016-06-28T05:38:12.149Z,24.58
2016-06-28T05:39:11.575Z,24.58
2016-06-28T05:40:11.563Z,24.67
2016-06-28T05:41:12.177Z,24.64
2016-06-28T05:42:11.589Z,24.74
2016-06-28T05:43:11.002Z,24.71
2016-06-28T05:44:11.605Z,24.74
2016-06-28T05:45:11.661Z,24.7
2016-06-28T05:46:11.626Z,24.71
2016-06-28T05:47:11.633Z,24.69
2016-06-28T05:48:11.631Z,24.71
2016-06-28T05:49:12.318Z,24.69
2016-06-28T05:50:12.257Z,24.74
2016-06-28T05:51:12.264Z,24.67
2016-06-28T05:52:12.265Z,24.69
2016-06-28T05:53:11.688Z,24.67
2016-06-28T05:54:11.707Z,24.69
2016-06-28T05:55:11.709Z,24.66
2016-06-28T05:56:11.738Z,24.71
2016-06-28T05:57:11.141Z,24.71
2016-06-28T05:58:11.171Z,24.74
2016-06-28T05:59:11.752Z,24.74
2016-06-28T06:00:11.195Z,24.74
2016-06-28T06:01:12.372Z,24.74
2016-06-28T06:02:11.174Z,24.7
2016-06-28T06:03:11.780Z,24.8
2016-06-28T06:04:12.389Z,24.74
2016-06-28T06:05:11.809Z,24.75
2016-06-28T06:06:11.220Z,24.7
2016-06-28T06:07:12.430Z,24.74
2016-06-28T06:08:12.434Z,24.77
2016-06-28T06:09:11.844Z,24.71
2016-06-28T06:10:11.852Z,24.71
2016-06-28T06:11:11.884Z,24.71
2016-06-28T06:12:12.462Z,24.78
2016-06-28T06:13:11.895Z,24.64
2016-06-28T06:14:12.510Z,24.77
2016-06-28T06:15:11.899Z,24.74
2016-06-28T06:16:12.521Z,24.77
2016-06-28T06:17:11.919Z,24.75
2016-06-28T06:18:11.948Z,24.75
2016-06-28T06:19:11.950Z,24.83
2016-06-28T06:20:11.979Z,24.77
2016-06-28T06:21:12.803Z,24.78
2016-06-28T06:22:11.406Z,24.71
2016-06-28T06:23:12.614Z,24.83
2016-06-28T06:24:12.596Z,24.8
2016-06-28T06:25:12.013Z,24.83
2016-06-28T06:26:11.420Z,24.8
2016-06-28T06:27:12.122Z,24.74
2016-06-28T06:28:12.634Z,24.85
2016-06-28T06:29:12.044Z,24.78
2016-06-28T06:30:12.038Z,24.71
2016-06-28T06:31:11.470Z,24.75
2016-06-28T06:32:11.492Z,24.85
2016-06-28T06:33:12.097Z,24.78
2016-06-28T06:34:12.689Z,24.85
2016-06-28T06:35:12.097Z,24.78
2016-06-28T06:36:12.699Z,24.78
2016-06-28T06:37:11.516Z,24.77
2016-06-28T06:38:12.750Z,24.77
2016-06-28T06:39:12.750Z,24.85
2016-06-28T06:40:12.149Z,24.87
2016-06-28T06:41:11.592Z,24.77
2016-06-28T06:42:12.172Z,24.83
2016-06-28T06:43:12.178Z,24.86
2016-06-28T06:44:12.192Z,24.86
2016-06-28T06:45:12.200Z,24.8
2016-06-28T06:46:12.244Z,24.8
2016-06-28T06:47:12.808Z,24.8
2016-06-28T06:48:12.832Z,24.78
2016-06-28T06:49:12.246Z,24.78
2016-06-28T06:50:12.257Z,24.78
2016-06-28T06:51:12.868Z,24.87
2016-06-28T06:52:12.279Z,24.82
2016-06-28T06:53:12.271Z,24.94
2016-06-28T06:54:12.898Z,24.85
2016-06-28T06:55:12.907Z,24.94
2016-06-28T06:56:11.719Z,24.93
2016-06-28T06:57:12.548Z,24.96
2016-06-28T06:58:12.342Z,24.94
2016-06-28T06:59:11.733Z,24.97
2016-06-28T07:00:12.342Z,25
2016-06-28T07:01:12.955Z,24.89
2016-06-28T07:02:12.950Z,24.92
2016-06-28T07:03:12.355Z,24.97
2016-06-28T07:04:13.006Z,25.02
2016-06-28T07:05:12.401Z,25.04
2016-06-28T07:06:13.010Z,25.02
2016-06-28T07:07:12.402Z,25.07
2016-06-28T07:08:13.007Z,25.02
2016-06-28T07:09:12.427Z,24.97
2016-06-28T07:10:12.424Z,25.07
2016-06-28T07:11:12.447Z,25.08
2016-06-28T07:12:12.459Z,25.07
2016-06-28T07:13:13.055Z,25.05
2016-06-28T07:14:13.073Z,25.02
2016-06-28T07:15:13.091Z,25.09
2016-06-28T07:16:12.510Z,25.05
2016-06-28T07:17:12.519Z,25.08
2016-06-28T07:18:13.124Z,25.07
2016-06-28T07:19:12.534Z,25.12
2016-06-28T07:20:12.549Z,25.11
2016-06-28T07:21:12.534Z,25.08
2016-06-28T07:22:13.142Z,25.12
2016-06-28T07:23:13.174Z,25.15
2016-06-28T07:24:13.174Z,25.23
2016-06-28T07:25:11.985Z,25.14
2016-06-28T07:26:11.987Z,25.2
2016-06-28T07:27:12.704Z,25.23
2016-06-28T07:28:13.222Z,25.2
2016-06-28T07:29:12.613Z,25.17
2016-06-28T07:30:12.632Z,25.22
2016-06-28T07:31:12.638Z,25.23
2016-06-28T07:32:12.060Z,25.2
2016-06-28T07:33:12.055Z,25.29
2016-06-28T07:34:12.686Z,25.32
2016-06-28T07:35:12.707Z,25.22
2016-06-28T07:36:12.718Z,25.24
2016-06-28T07:37:12.106Z,25.23
2016-06-28T07:38:12.712Z,25.37
2016-06-28T07:39:12.736Z,25.39
2016-06-28T07:40:13.349Z,25.27
2016-06-28T07:41:12.153Z,25.27
2016-06-28T07:42:12.754Z,25.38
2016-06-28T07:43:12.769Z,25.29
2016-06-28T07:44:13.367Z,25.33
2016-06-28T07:45:12.768Z,25.32
2016-06-28T07:46:12.789Z,25.3
2016-06-28T07:47:12.788Z,25.34
2016-06-28T07:48:12.208Z,25.32
2016-06-28T07:49:12.827Z,25.34
2016-06-28T07:50:13.431Z,25.34
2016-06-28T07:51:13.455Z,25.39
2016-06-28T07:52:12.856Z,25.3
2016-06-28T07:53:12.296Z,25.3
2016-06-28T07:54:13.469Z,25.38
2016-06-28T07:55:13.489Z,25.39
2016-06-28T07:56:13.500Z,25.39
2016-06-28T07:57:12.306Z,25.41
2016-06-28T07:58:13.494Z,25.39
2016-06-28T07:59:12.320Z,25.38
2016-06-28T08:00:12.928Z,25.38
2016-06-28T08:01:12.930Z,25.37
2016-06-28T08:02:12.359Z,25.44
2016-06-28T08:03:12.951Z,25.37
2016-06-28T08:04:13.564Z,25.41
2016-06-28T08:05:12.379Z,25.42
2016-06-28T08:06:12.977Z,25.37
2016-06-28T08:07:13.033Z,25.38
2016-06-28T08:08:13.635Z,25.41
2016-06-28T08:09:13.022Z,25.44
2016-06-28T08:10:13.615Z,25.45
2016-06-28T08:11:13.036Z,25.45
2016-06-28T08:12:13.052Z,25.44
2016-06-28T08:13:12.446Z,25.41
2016-06-28T08:14:12.463Z,25.45
2016-06-28T08:15:13.071Z,25.47
2016-06-28T08:16:13.088Z,25.42
2016-06-28T08:17:13.106Z,25.49
2016-06-28T08:18:12.510Z,25.44
2016-06-28T08:19:13.112Z,25.44
2016-06-28T08:20:12.508Z,25.52
2016-06-28T08:21:13.141Z,25.49
2016-06-28T08:22:12.568Z,25.48
2016-06-28T08:23:12.566Z,25.49
2016-06-28T08:24:13.766Z,25.44
2016-06-28T08:25:13.190Z,25.51
2016-06-28T08:26:13.173Z,25.48
2016-06-28T08:27:14.006Z,25.44
2016-06-28T08:28:12.596Z,25.49
2016-06-28T08:29:12.608Z,25.52
2016-06-28T08:30:13.825Z,25.52
2016-06-28T08:31:12.626Z,25.54
2016-06-28T08:32:13.841Z,25.57
2016-06-28T08:33:13.237Z,25.52
2016-06-28T08:34:13.255Z,25.47
2016-06-28T08:35:12.682Z,25.48
2016-06-28T08:36:13.272Z,25.44
2016-06-28T08:37:13.291Z,25.49
2016-06-28T08:38:13.300Z,25.51
2016-06-28T08:39:13.443Z,25.49
2016-06-28T08:40:12.746Z,25.51
2016-06-28T08:41:12.740Z,25.52
2016-06-28T08:42:13.354Z,25.48
2016-06-28T08:43:13.361Z,25.49
2016-06-28T08:44:13.961Z,25.47
2016-06-28T08:45:13.376Z,25.49
2016-06-28T08:46:13.381Z,25.48
2016-06-28T08:47:12.786Z,25.48
2016-06-28T08:48:14.001Z,25.49
2016-06-28T08:49:13.398Z,25.47
2016-06-28T08:50:13.443Z,25.48
2016-06-28T08:51:12.833Z,25.57
2016-06-28T08:52:14.037Z,25.47
2016-06-28T08:53:12.853Z,25.49
2016-06-28T08:54:14.053Z,25.49
2016-06-28T08:55:12.863Z,25.49
2016-06-28T08:56:14.080Z,25.42
2016-06-28T08:57:13.488Z,25.45
2016-06-28T08:58:14.096Z,25.39
2016-06-28T08:59:13.526Z,25.44
2016-06-28T09:00:13.504Z,25.45
2016-06-28T09:01:14.119Z,25.52
2016-06-28T09:02:13.532Z,25.57
2016-06-28T09:03:12.961Z,25.6
2016-06-28T09:04:14.139Z,25.67
2016-06-28T09:05:13.563Z,25.74
2016-06-28T09:06:12.967Z,25.71
2016-06-28T09:07:13.581Z,25.74
2016-06-28T09:08:14.230Z,25.67
2016-06-28T09:09:13.587Z,25.64
2016-06-28T09:10:13.030Z,25.64
2016-06-28T09:11:13.837Z,25.82
2016-06-28T09:12:13.031Z,25.76
2016-06-28T09:13:13.054Z,25.78
2016-06-28T09:14:14.251Z,25.81
2016-06-28T09:15:13.662Z,25.85
2016-06-28T09:16:13.074Z,25.86
2016-06-28T09:17:13.103Z,25.91
2016-06-28T09:18:13.688Z,25.93
2016-06-28T09:19:13.710Z,25.93
2016-06-28T09:20:13.703Z,25.94
2016-06-28T09:21:14.313Z,25.88
2016-06-28T09:22:13.126Z,25.99
2016-06-28T09:23:13.739Z,25.97
2016-06-28T09:24:13.755Z,25.94
2016-06-28T09:25:13.762Z,26
2016-06-28T09:26:14.383Z,26.07
2016-06-28T09:27:13.785Z,25.97
2016-06-28T09:28:13.794Z,25.93
2016-06-28T09:29:14.397Z,25.96
2016-06-28T09:30:13.821Z,26.01
2016-06-28T09:31:14.446Z,25.91
2016-06-28T09:32:13.843Z,26
2016-06-28T09:33:13.871Z,26.01
2016-06-28T09:34:13.845Z,25.89
2016-06-28T09:35:13.862Z,26
2016-06-28T09:36:13.880Z,26.01
2016-06-28T09:37:14.489Z,25.99
2016-06-28T09:38:14.479Z,25.96
2016-06-28T09:39:13.894Z,25.97
2016-06-28T09:40:14.513Z,25.97
2016-06-28T09:41:13.934Z,25.96
2016-06-28T09:42:13.342Z,25.94
2016-06-28T09:43:13.942Z,25.94
2016-06-28T09:44:13.946Z,25.99
2016-06-28T09:45:13.969Z,25.96
2016-06-28T09:46:13.376Z,25.99
2016-06-28T09:47:14.590Z,25.97
2016-06-28T09:48:13.997Z,25.94
2016-06-28T09:49:13.395Z,26.01
2016-06-28T09:50:14.008Z,26.09
2016-06-28T09:51:13.423Z,26.03
2016-06-28T09:52:14.658Z,26.03
2016-06-28T09:53:14.627Z,26.12
2016-06-28T09:54:14.652Z,26.06
2016-06-28T09:55:14.658Z,26.09
2016-06-28T09:56:14.079Z,26.19
2016-06-28T09:57:14.075Z,26.09
2016-06-28T09:58:14.094Z,26.15
2016-06-28T09:59:14.695Z,26.17
2016-06-28T10:00:14.106Z,26.09
2016-06-28T10:01:14.112Z,26.2
2016-06-28T10:02:14.723Z,26.19
2016-06-28T10:03:14.127Z,26.26
2016-06-28T10:04:14.153Z,26.22
2016-06-28T10:05:14.775Z,26.24
2016-06-28T10:06:14.774Z,26.22
2016-06-28T10:07:14.768Z,26.34
2016-06-28T10:08:14.788Z,26.32
2016-06-28T10:09:14.190Z,26.31
2016-06-28T10:10:14.808Z,26.26
2016-06-28T10:11:13.612Z,26.35
2016-06-28T10:12:14.229Z,26.37
2016-06-28T10:13:14.817Z,26.42
2016-06-28T10:14:13.646Z,26.37
2016-06-28T10:15:14.877Z,26.37
2016-06-28T10:16:14.275Z,26.41
2016-06-28T10:17:13.676Z,26.35
2016-06-28T10:18:13.687Z,26.34
2016-06-28T10:19:14.890Z,26.35
2016-06-28T10:20:14.901Z,26.38
2016-06-28T10:21:14.313Z,26.41
2016-06-28T10:22:14.957Z,26.42
2016-06-28T10:23:13.729Z,26.45
2016-06-28T10:24:13.742Z,26.45
2016-06-28T10:25:14.394Z,26.41
2016-06-28T10:26:13.772Z,26.42
2016-06-28T10:27:13.774Z,26.5
2016-06-28T10:28:13.782Z,26.45
2016-06-28T10:29:15.034Z,26.52
2016-06-28T10:30:14.405Z,26.54
2016-06-28T10:31:14.413Z,26.56
2016-06-28T10:32:14.426Z,26.56
2016-06-28T10:33:15.032Z,26.54
2016-06-28T10:34:13.854Z,26.56
2016-06-28T10:35:13.860Z,26.6
2016-06-28T10:36:14.462Z,26.59
2016-06-28T10:37:14.465Z,26.53
2016-06-28T10:38:14.480Z,26.52
2016-06-28T10:39:14.507Z,26.42
2016-06-28T10:40:15.103Z,26.52
2016-06-28T10:41:13.915Z,26.6
2016-06-28T10:42:14.539Z,26.6
2016-06-28T10:43:13.950Z,26.71
2016-06-28T10:44:15.150Z,26.69
2016-06-28T10:45:14.559Z,26.67
2016-06-28T10:46:14.576Z,26.67
2016-06-28T10:47:15.199Z,26.63
2016-06-28T10:48:14.606Z,26.79
2016-06-28T10:49:15.202Z,26.89
2016-06-28T10:50:15.209Z,26.82
2016-06-28T10:51:14.617Z,26.94
2016-06-28T10:52:14.039Z,26.86
2016-06-28T10:53:14.658Z,26.94
2016-06-28T10:54:15.249Z,26.9
2016-06-28T10:55:14.078Z,26.81
2016-06-28T10:56:15.270Z,26.91
2016-06-28T10:57:15.291Z,26.91
2016-06-28T10:58:14.680Z,26.84
2016-06-28T10:59:15.301Z,26.82
2016-06-28T11:00:14.717Z,26.71
2016-06-28T11:01:15.326Z,26.75
2016-06-28T11:02:15.372Z,26.78
2016-06-28T11:03:14.748Z,26.86
2016-06-28T11:04:15.352Z,26.82
2016-06-28T11:05:15.368Z,26.86
2016-06-28T11:06:14.183Z,26.86
2016-06-28T11:07:14.792Z,26.82
2016-06-28T11:08:15.402Z,26.86
2016-06-28T11:09:14.811Z,26.94
2016-06-28T11:10:14.223Z,26.81
2016-06-28T11:11:15.435Z,26.78
2016-06-28T11:12:15.434Z,26.74
2016-06-28T11:13:14.850Z,26.72
2016-06-28T11:14:15.453Z,26.75
2016-06-28T11:15:15.466Z,26.81
2016-06-28T11:16:14.904Z,26.84
2016-06-28T11:17:15.507Z,26.87
2016-06-28T11:18:15.503Z,26.86
2016-06-28T11:19:14.911Z,26.93
2016-06-28T11:20:14.323Z,26.86
2016-06-28T11:21:15.534Z,26.82
2016-06-28T11:22:15.538Z,26.84
2016-06-28T11:23:15.586Z,26.9
2016-06-28T11:24:15.562Z,26.9
2016-06-28T11:25:14.957Z,26.94
2016-06-28T11:26:15.569Z,26.96
2016-06-28T11:27:15.002Z,26.93
2016-06-28T11:28:15.010Z,27.06
2016-06-28T11:29:14.418Z,26.97
2016-06-28T11:30:15.645Z,27.09
2016-06-28T11:31:15.047Z,27.05
2016-06-28T11:32:14.462Z,27.08
2016-06-28T11:33:15.067Z,27.12
2016-06-28T11:34:15.672Z,27.11
2016-06-28T11:35:15.080Z,27.09
2016-06-28T11:36:15.085Z,27.13
2016-06-28T11:37:15.691Z,27.13
2016-06-28T11:38:15.715Z,27.15
2016-06-28T11:39:15.109Z,27.18
2016-06-28T11:40:14.591Z,27.19
2016-06-28T11:41:14.536Z,27.23
2016-06-28T11:42:14.546Z,27.19
2016-06-28T11:43:15.766Z,27.23
2016-06-28T11:44:15.166Z,27.15
2016-06-28T11:45:14.574Z,27.05
2016-06-28T11:46:15.804Z,27.01
2016-06-28T11:47:14.594Z,27.09
2016-06-28T11:48:14.837Z,26.94
2016-06-28T11:49:15.814Z,27.06
2016-06-28T11:50:15.236Z,26.99
2016-06-28T11:51:15.241Z,27.09
2016-06-28T11:52:14.663Z,27.08
2016-06-28T11:53:14.700Z,27.05
2016-06-28T11:54:15.873Z,27.04
2016-06-28T11:55:14.693Z,27
2016-06-28T11:56:14.695Z,27.16
2016-06-28T11:57:15.921Z,27.19
2016-06-28T11:58:15.930Z,27.16
2016-06-28T11:59:15.327Z,27.19
2016-06-28T12:00:15.976Z,27.11
2016-06-28T12:01:15.364Z,27.19
2016-06-28T12:02:15.940Z,27.12
2016-06-28T12:03:15.984Z,27.13
2016-06-28T12:04:15.992Z,27.15
2016-06-28T12:05:16.038Z,27.16
2016-06-28T12:06:15.390Z,27.12
2016-06-28T12:07:15.462Z,27.19
2016-06-28T12:08:15.406Z,27.26
2016-06-28T12:09:15.432Z,27.31
2016-06-28T12:10:16.040Z,27.31
2016-06-28T12:11:15.457Z,27.28
2016-06-28T12:12:16.077Z,27.3
2016-06-28T12:13:15.472Z,27.36
2016-06-28T12:14:15.503Z,27.28
2016-06-28T12:15:16.150Z,27.23
2016-06-28T12:16:15.502Z,27.18
2016-06-28T12:17:16.102Z,27.19
2016-06-28T12:18:15.555Z,27.24
2016-06-28T12:19:16.128Z,27.28
2016-06-28T12:20:16.150Z,27.18
2016-06-28T12:21:15.544Z,27.27
2016-06-28T12:22:16.168Z,27.24
2016-06-28T12:23:14.978Z,27.24
2016-06-28T12:24:16.179Z,27.16
2016-06-28T12:25:15.023Z,27.15
2016-06-28T12:26:16.299Z,27.27
2016-06-28T12:27:16.250Z,27.28
2016-06-28T12:28:15.029Z,27.34
2016-06-28T12:29:15.726Z,27.26
2016-06-28T12:30:15.049Z,27.26
2016-06-28T12:31:15.669Z,27.27
2016-06-28T12:33:30.370Z,27.24
2016-06-28T12:34:30.380Z,27.16
2016-06-28T12:35:30.993Z,27.21
2016-06-28T12:36:30.416Z,27.24
2016-06-28T12:37:29.824Z,27.31
2016-06-28T12:38:30.426Z,27.34
2016-06-28T12:39:30.453Z,27.37
2016-06-28T12:40:30.464Z,27.37
2016-06-28T12:41:31.042Z,27.37
2016-06-28T12:42:30.464Z,27.36
2016-06-28T12:43:31.067Z,27.41
2016-06-28T12:44:31.075Z,27.33
2016-06-28T12:45:30.489Z,27.34
2016-06-28T12:46:29.901Z,27.38
2016-06-28T12:47:30.518Z,27.26
2016-06-28T12:48:30.554Z,27.18
2016-06-28T12:49:31.157Z,27.16
2016-06-28T12:50:30.560Z,27.27
2016-06-28T12:51:30.579Z,27.27
2016-06-28T12:52:30.587Z,27.26
2016-06-28T12:53:30.569Z,27.26
2016-06-28T12:54:29.977Z,27.24
2016-06-28T12:55:31.202Z,27.33
2016-06-28T12:56:31.216Z,27.26
2016-06-28T12:57:30.648Z,27.41